sensor_id;sensor_type;location;lat;lon;timestamp;P1;durP1;ratioP1;P2;durP2;ratioP2
20982;SDS011;10650;51.528;6.748;2022-12-29T00:01:00;4.00;;;2.67;;
20982;SDS011;10650;51.528;6.748;2022-12-29T00:03:28;4.13;;;2.72;;
20982;SDS011;10650;51.528;6.748;2022-12-29T00:05:56;3.90;;;2.55;;
20982;SDS011;10650;51.528;6.748;2022-12-29T00:08:24;5.65;;;3.30;;
20982;SDS011;10650;51.528;6.748;2022-12-29T00:11:06;9.60;;;5.97;;
20982;SDS011;10650;51.528;6.748;2022-12-29T00:13:34;13.63;;;8.05;;
20982;SDS011;10650;51.528;6.748;2022-12-29T00:16:21;18.98;;;9.98;;
20982;SDS011;10650;51.528;6.748;2022-12-29T00:18:49;17.27;;;9.05;;
20982;SDS011;10650;51.528;6.748;2022-12-29T00:21:17;22.35;;;11.63;;
20982;SDS011;10650;51.528;6.748;2022-12-29T00:24:05;18.25;;;9.60;;
20982;SDS011;10650;51.528;6.748;2022-12-29T00:26:50;15.10;;;8.63;;
20982;SDS011;10650;51.528;6.748;2022-12-29T00:29:45;16.30;;;8.98;;
20982;SDS011;10650;51.528;6.748;2022-12-29T00:32:32;16.17;;;8.63;;
20982;SDS011;10650;51.528;6.748;2022-12-29T00:35:20;16.58;;;9.95;;
20982;SDS011;10650;51.528;6.748;2022-12-29T00:37:51;11.73;;;6.80;;
20982;SDS011;10650;51.528;6.748;2022-12-29T00:40:39;10.15;;;6.25;;
20982;SDS011;10650;51.528;6.748;2022-12-29T00:43:25;7.70;;;5.35;;
20982;SDS011;10650;51.528;6.748;2022-12-29T00:46:10;4.53;;;3.13;;
20982;SDS011;10650;51.528;6.748;2022-12-29T00:48:46;4.40;;;2.92;;
20982;SDS011;10650;51.528;6.748;2022-12-29T00:51:32;6.80;;;4.60;;
20982;SDS011;10650;51.528;6.748;2022-12-29T00:54:00;6.30;;;3.80;;
20982;SDS011;10650;51.528;6.748;2022-12-29T00:56:28;4.80;;;2.83;;
20982;SDS011;10650;51.528;6.748;2022-12-29T00:58:55;6.68;;;3.83;;
20982;SDS011;10650;51.528;6.748;2022-12-29T01:01:27;7.27;;;4.23;;
20982;SDS011;10650;51.528;6.748;2022-12-29T01:03:56;7.95;;;4.30;;
20982;SDS011;10650;51.528;6.748;2022-12-29T01:06:29;5.85;;;3.70;;
20982;SDS011;10650;51.528;6.748;2022-12-29T01:08:58;11.65;;;6.15;;
20982;SDS011;10650;51.528;6.748;2022-12-29T01:11:43;8.02;;;3.88;;
20982;SDS011;10650;51.528;6.748;2022-12-29T01:14:11;6.05;;;3.60;;
20982;SDS011;10650;51.528;6.748;2022-12-29T01:16:39;5.82;;;3.50;;
20982;SDS011;10650;51.528;6.748;2022-12-29T01:19:09;7.97;;;3.72;;
20982;SDS011;10650;51.528;6.748;2022-12-29T01:21:36;7.05;;;2.90;;
20982;SDS011;10650;51.528;6.748;2022-12-29T01:24:04;4.95;;;2.88;;
20982;SDS011;10650;51.528;6.748;2022-12-29T01:26:32;7.65;;;3.38;;
20982;SDS011;10650;51.528;6.748;2022-12-29T01:29:00;5.93;;;3.85;;
20982;SDS011;10650;51.528;6.748;2022-12-29T01:31:28;4.93;;;2.72;;
20982;SDS011;10650;51.528;6.748;2022-12-29T01:33:56;3.10;;;2.53;;
20982;SDS011;10650;51.528;6.748;2022-12-29T01:36:25;4.22;;;2.42;;
20982;SDS011;10650;51.528;6.748;2022-12-29T01:38:53;3.88;;;2.78;;
20982;SDS011;10650;51.528;6.748;2022-12-29T01:41:20;3.08;;;2.10;;
20982;SDS011;10650;51.528;6.748;2022-12-29T01:43:49;4.10;;;2.08;;
20982;SDS011;10650;51.528;6.748;2022-12-29T01:46:22;2.80;;;1.95;;
20982;SDS011;10650;51.528;6.748;2022-12-29T01:48:54;2.67;;;2.10;;
20982;SDS011;10650;51.528;6.748;2022-12-29T01:51:26;3.25;;;2.00;;
20982;SDS011;10650;51.528;6.748;2022-12-29T01:53:57;2.70;;;1.80;;
20982;SDS011;10650;51.528;6.748;2022-12-29T01:56:29;2.30;;;1.53;;
20982;SDS011;10650;51.528;6.748;2022-12-29T01:58:59;5.43;;;2.40;;
20982;SDS011;10650;51.528;6.748;2022-12-29T02:01:30;3.97;;;1.80;;
20982;SDS011;10650;51.528;6.748;2022-12-29T02:03:59;2.35;;;1.70;;
20982;SDS011;10650;51.528;6.748;2022-12-29T02:06:29;3.13;;;2.00;;
20982;SDS011;10650;51.528;6.748;2022-12-29T02:09:00;3.75;;;1.80;;
20982;SDS011;10650;51.528;6.748;2022-12-29T02:11:29;4.45;;;1.70;;
20982;SDS011;10650;51.528;6.748;2022-12-29T02:13:58;2.13;;;1.42;;
20982;SDS011;10650;51.528;6.748;2022-12-29T02:16:35;2.00;;;1.50;;
20982;SDS011;10650;51.528;6.748;2022-12-29T02:22:26;3.10;;;1.70;;
20982;SDS011;10650;51.528;6.748;2022-12-29T02:25:15;2.65;;;1.35;;
20982;SDS011;10650;51.528;6.748;2022-12-29T02:28:07;2.28;;;1.55;;
20982;SDS011;10650;51.528;6.748;2022-12-29T02:31:13;3.42;;;1.63;;
20982;SDS011;10650;51.528;6.748;2022-12-29T02:33:50;3.15;;;1.70;;
20982;SDS011;10650;51.528;6.748;2022-12-29T02:36:29;2.10;;;1.45;;
20982;SDS011;10650;51.528;6.748;2022-12-29T02:39:09;3.40;;;1.98;;
20982;SDS011;10650;51.528;6.748;2022-12-29T02:41:52;4.73;;;2.07;;
20982;SDS011;10650;51.528;6.748;2022-12-29T02:44:31;3.85;;;1.90;;
20982;SDS011;10650;51.528;6.748;2022-12-29T02:47:11;2.42;;;1.70;;
20982;SDS011;10650;51.528;6.748;2022-12-29T02:49:45;5.32;;;2.90;;
20982;SDS011;10650;51.528;6.748;2022-12-29T02:52:21;4.95;;;2.30;;
20982;SDS011;10650;51.528;6.748;2022-12-29T02:54:54;2.92;;;1.88;;
20982;SDS011;10650;51.528;6.748;2022-12-29T02:57:28;3.78;;;1.60;;
20982;SDS011;10650;51.528;6.748;2022-12-29T03:00:00;3.35;;;1.60;;
20982;SDS011;10650;51.528;6.748;2022-12-29T03:02:39;2.92;;;1.60;;
20982;SDS011;10650;51.528;6.748;2022-12-29T03:05:26;2.55;;;1.80;;
20982;SDS011;10650;51.528;6.748;2022-12-29T03:08:11;3.92;;;2.00;;
20982;SDS011;10650;51.528;6.748;2022-12-29T03:10:47;2.03;;;1.55;;
20982;SDS011;10650;51.528;6.748;2022-12-29T03:13:22;1.90;;;1.13;;
20982;SDS011;10650;51.528;6.748;2022-12-29T03:16:13;1.80;;;1.10;;
20982;SDS011;10650;51.528;6.748;2022-12-29T03:18:50;2.08;;;1.17;;
20982;SDS011;10650;51.528;6.748;2022-12-29T03:21:26;1.58;;;1.20;;
20982;SDS011;10650;51.528;6.748;2022-12-29T03:26:45;3.30;;;1.50;;
20982;SDS011;10650;51.528;6.748;2022-12-29T03:29:16;4.38;;;2.03;;
20982;SDS011;10650;51.528;6.748;2022-12-29T03:31:45;3.92;;;1.70;;
20982;SDS011;10650;51.528;6.748;2022-12-29T03:34:17;1.63;;;1.13;;
20982;SDS011;10650;51.528;6.748;2022-12-29T03:36:48;2.53;;;1.02;;
20982;SDS011;10650;51.528;6.748;2022-12-29T03:39:19;3.60;;;1.20;;
20982;SDS011;10650;51.528;6.748;2022-12-29T03:41:50;2.33;;;1.30;;
20982;SDS011;10650;51.528;6.748;2022-12-29T03:44:31;2.33;;;1.60;;
20982;SDS011;10650;51.528;6.748;2022-12-29T03:46:59;3.45;;;1.67;;
20982;SDS011;10650;51.528;6.748;2022-12-29T03:49:28;2.65;;;1.52;;
20982;SDS011;10650;51.528;6.748;2022-12-29T03:51:56;3.10;;;1.70;;
20982;SDS011;10650;51.528;6.748;2022-12-29T03:54:24;2.20;;;1.50;;
20982;SDS011;10650;51.528;6.748;2022-12-29T03:56:52;2.55;;;1.42;;
20982;SDS011;10650;51.528;6.748;2022-12-29T03:59:20;2.40;;;1.48;;
20982;SDS011;10650;51.528;6.748;2022-12-29T04:01:48;2.45;;;1.60;;
20982;SDS011;10650;51.528;6.748;2022-12-29T04:04:16;2.88;;;1.85;;
20982;SDS011;10650;51.528;6.748;2022-12-29T04:06:45;3.55;;;2.20;;
20982;SDS011;10650;51.528;6.748;2022-12-29T04:09:13;3.75;;;2.40;;
20982;SDS011;10650;51.528;6.748;2022-12-29T04:11:42;6.10;;;2.30;;
20982;SDS011;10650;51.528;6.748;2022-12-29T04:14:10;5.07;;;2.88;;
20982;SDS011;10650;51.528;6.748;2022-12-29T04:16:39;5.05;;;2.83;;
20982;SDS011;10650;51.528;6.748;2022-12-29T04:19:07;3.33;;;2.15;;
20982;SDS011;10650;51.528;6.748;2022-12-29T04:21:35;4.32;;;2.53;;
20982;SDS011;10650;51.528;6.748;2022-12-29T04:24:04;3.38;;;2.00;;
20982;SDS011;10650;51.528;6.748;2022-12-29T04:26:33;3.08;;;1.90;;
20982;SDS011;10650;51.528;6.748;2022-12-29T04:29:01;3.05;;;1.95;;
20982;SDS011;10650;51.528;6.748;2022-12-29T04:31:29;3.63;;;1.77;;
20982;SDS011;10650;51.528;6.748;2022-12-29T04:33:59;3.20;;;1.90;;
20982;SDS011;10650;51.528;6.748;2022-12-29T04:36:27;3.70;;;1.58;;
20982;SDS011;10650;51.528;6.748;2022-12-29T04:38:55;2.45;;;1.67;;
20982;SDS011;10650;51.528;6.748;2022-12-29T04:41:25;2.75;;;1.48;;
20982;SDS011;10650;51.528;6.748;2022-12-29T04:43:52;3.10;;;1.60;;
20982;SDS011;10650;51.528;6.748;2022-12-29T04:46:20;2.40;;;1.38;;
20982;SDS011;10650;51.528;6.748;2022-12-29T04:48:48;1.48;;;0.88;;
20982;SDS011;10650;51.528;6.748;2022-12-29T04:51:16;3.33;;;1.00;;
20982;SDS011;10650;51.528;6.748;2022-12-29T04:53:44;0.73;;;0.73;;
20982;SDS011;10650;51.528;6.748;2022-12-29T04:56:12;2.90;;;1.00;;
20982;SDS011;10650;51.528;6.748;2022-12-29T04:58:41;2.95;;;0.90;;
20982;SDS011;10650;51.528;6.748;2022-12-29T05:01:09;1.98;;;0.70;;
20982;SDS011;10650;51.528;6.748;2022-12-29T05:03:36;1.65;;;0.80;;
20982;SDS011;10650;51.528;6.748;2022-12-29T05:06:05;2.75;;;0.75;;
20982;SDS011;10650;51.528;6.748;2022-12-29T05:08:33;2.95;;;0.90;;
20982;SDS011;10650;51.528;6.748;2022-12-29T05:11:01;2.55;;;0.80;;
20982;SDS011;10650;51.528;6.748;2022-12-29T05:13:28;1.63;;;0.80;;
20982;SDS011;10650;51.528;6.748;2022-12-29T05:15:57;1.35;;;0.70;;
20982;SDS011;10650;51.528;6.748;2022-12-29T05:18:25;0.95;;;0.50;;
20982;SDS011;10650;51.528;6.748;2022-12-29T05:20:53;0.82;;;0.52;;
20982;SDS011;10650;51.528;6.748;2022-12-29T05:23:21;1.73;;;0.70;;
20982;SDS011;10650;51.528;6.748;2022-12-29T05:25:48;1.35;;;0.80;;
20982;SDS011;10650;51.528;6.748;2022-12-29T05:28:17;1.25;;;0.82;;
20982;SDS011;10650;51.528;6.748;2022-12-29T05:30:47;1.35;;;0.60;;
20982;SDS011;10650;51.528;6.748;2022-12-29T05:33:17;2.85;;;0.70;;
20982;SDS011;10650;51.528;6.748;2022-12-29T05:35:45;6.50;;;0.80;;
20982;SDS011;10650;51.528;6.748;2022-12-29T05:38:13;2.13;;;0.77;;
20982;SDS011;10650;51.528;6.748;2022-12-29T05:40:40;2.15;;;0.80;;
20982;SDS011;10650;51.528;6.748;2022-12-29T05:43:08;2.60;;;1.10;;
20982;SDS011;10650;51.528;6.748;2022-12-29T05:45:36;2.67;;;1.15;;
20982;SDS011;10650;51.528;6.748;2022-12-29T05:48:04;1.10;;;0.85;;
20982;SDS011;10650;51.528;6.748;2022-12-29T05:50:34;1.83;;;1.17;;
20982;SDS011;10650;51.528;6.748;2022-12-29T05:53:01;2.15;;;1.02;;
20982;SDS011;10650;51.528;6.748;2022-12-29T05:55:29;2.45;;;1.02;;
20982;SDS011;10650;51.528;6.748;2022-12-29T05:57:58;2.63;;;1.23;;
20982;SDS011;10650;51.528;6.748;2022-12-29T06:00:26;1.88;;;0.90;;
20982;SDS011;10650;51.528;6.748;2022-12-29T06:02:53;5.13;;;1.20;;
20982;SDS011;10650;51.528;6.748;2022-12-29T06:05:22;4.38;;;1.25;;
20982;SDS011;10650;51.528;6.748;2022-12-29T06:07:51;2.83;;;1.10;;
20982;SDS011;10650;51.528;6.748;2022-12-29T06:10:19;2.83;;;1.10;;
20982;SDS011;10650;51.528;6.748;2022-12-29T06:12:46;3.05;;;1.13;;
20982;SDS011;10650;51.528;6.748;2022-12-29T06:15:14;2.53;;;1.00;;
20982;SDS011;10650;51.528;6.748;2022-12-29T06:17:42;2.28;;;1.17;;
20982;SDS011;10650;51.528;6.748;2022-12-29T06:20:10;3.20;;;0.98;;
20982;SDS011;10650;51.528;6.748;2022-12-29T06:22:38;3.50;;;0.95;;
20982;SDS011;10650;51.528;6.748;2022-12-29T06:25:08;3.92;;;1.10;;
20982;SDS011;10650;51.528;6.748;2022-12-29T06:27:36;4.25;;;1.10;;
20982;SDS011;10650;51.528;6.748;2022-12-29T06:30:04;2.10;;;0.90;;
20982;SDS011;10650;51.528;6.748;2022-12-29T06:32:32;3.28;;;1.17;;
20982;SDS011;10650;51.528;6.748;2022-12-29T06:35:00;4.22;;;1.17;;
20982;SDS011;10650;51.528;6.748;2022-12-29T06:37:28;2.60;;;1.13;;
20982;SDS011;10650;51.528;6.748;2022-12-29T06:39:55;3.70;;;1.20;;
20982;SDS011;10650;51.528;6.748;2022-12-29T06:42:25;3.38;;;1.35;;
20982;SDS011;10650;51.528;6.748;2022-12-29T06:44:52;3.03;;;1.33;;
20982;SDS011;10650;51.528;6.748;2022-12-29T06:47:23;2.67;;;0.90;;
20982;SDS011;10650;51.528;6.748;2022-12-29T06:49:50;2.33;;;1.00;;
20982;SDS011;10650;51.528;6.748;2022-12-29T06:52:18;2.95;;;1.10;;
20982;SDS011;10650;51.528;6.748;2022-12-29T06:54:46;2.83;;;1.10;;
20982;SDS011;10650;51.528;6.748;2022-12-29T06:57:14;4.57;;;1.40;;
20982;SDS011;10650;51.528;6.748;2022-12-29T06:59:43;3.22;;;1.00;;
20982;SDS011;10650;51.528;6.748;2022-12-29T07:02:11;3.63;;;1.45;;
20982;SDS011;10650;51.528;6.748;2022-12-29T07:04:40;4.15;;;1.17;;
20982;SDS011;10650;51.528;6.748;2022-12-29T07:07:08;3.08;;;1.23;;
20982;SDS011;10650;51.528;6.748;2022-12-29T07:09:36;3.60;;;1.25;;
20982;SDS011;10650;51.528;6.748;2022-12-29T07:12:04;3.80;;;1.15;;
20982;SDS011;10650;51.528;6.748;2022-12-29T07:14:32;5.57;;;1.70;;
20982;SDS011;10650;51.528;6.748;2022-12-29T07:17:09;2.88;;;1.30;;
20982;SDS011;10650;51.528;6.748;2022-12-29T07:19:37;3.15;;;1.10;;
20982;SDS011;10650;51.528;6.748;2022-12-29T07:22:05;3.72;;;1.52;;
20982;SDS011;10650;51.528;6.748;2022-12-29T07:24:33;2.15;;;1.15;;
20982;SDS011;10650;51.528;6.748;2022-12-29T07:27:00;5.88;;;1.88;;
20982;SDS011;10650;51.528;6.748;2022-12-29T07:29:28;2.63;;;1.00;;
20982;SDS011;10650;51.528;6.748;2022-12-29T07:31:56;6.00;;;1.48;;
20982;SDS011;10650;51.528;6.748;2022-12-29T07:34:25;4.60;;;1.33;;
20982;SDS011;10650;51.528;6.748;2022-12-29T07:36:53;4.90;;;1.33;;
20982;SDS011;10650;51.528;6.748;2022-12-29T07:39:21;4.90;;;1.50;;
20982;SDS011;10650;51.528;6.748;2022-12-29T07:41:48;3.63;;;1.25;;
20982;SDS011;10650;51.528;6.748;2022-12-29T07:44:16;3.58;;;1.25;;
20982;SDS011;10650;51.528;6.748;2022-12-29T07:46:44;3.72;;;1.67;;
20982;SDS011;10650;51.528;6.748;2022-12-29T07:49:22;5.22;;;1.50;;
20982;SDS011;10650;51.528;6.748;2022-12-29T07:51:51;3.58;;;1.25;;
20982;SDS011;10650;51.528;6.748;2022-12-29T07:54:19;4.38;;;1.50;;
20982;SDS011;10650;51.528;6.748;2022-12-29T07:56:49;7.13;;;1.58;;
20982;SDS011;10650;51.528;6.748;2022-12-29T07:59:17;8.38;;;1.40;;
20982;SDS011;10650;51.528;6.748;2022-12-29T08:01:45;5.38;;;1.52;;
20982;SDS011;10650;51.528;6.748;2022-12-29T08:04:13;7.32;;;1.70;;
20982;SDS011;10650;51.528;6.748;2022-12-29T08:06:41;4.28;;;1.38;;
20982;SDS011;10650;51.528;6.748;2022-12-29T08:09:10;5.15;;;1.50;;
20982;SDS011;10650;51.528;6.748;2022-12-29T08:11:47;3.30;;;1.30;;
20982;SDS011;10650;51.528;6.748;2022-12-29T08:14:15;5.30;;;1.38;;
20982;SDS011;10650;51.528;6.748;2022-12-29T08:16:43;5.88;;;1.67;;
20982;SDS011;10650;51.528;6.748;2022-12-29T08:19:11;8.80;;;1.77;;
20982;SDS011;10650;51.528;6.748;2022-12-29T08:21:40;6.20;;;1.83;;
20982;SDS011;10650;51.528;6.748;2022-12-29T08:24:07;5.60;;;1.73;;
20982;SDS011;10650;51.528;6.748;2022-12-29T08:26:37;4.30;;;1.58;;
20982;SDS011;10650;51.528;6.748;2022-12-29T08:29:05;4.78;;;1.67;;
20982;SDS011;10650;51.528;6.748;2022-12-29T08:31:32;4.85;;;1.67;;
20982;SDS011;10650;51.528;6.748;2022-12-29T08:34:00;7.28;;;1.75;;
20982;SDS011;10650;51.528;6.748;2022-12-29T08:36:29;5.00;;;1.75;;
20982;SDS011;10650;51.528;6.748;2022-12-29T08:38:57;4.82;;;1.70;;
20982;SDS011;10650;51.528;6.748;2022-12-29T08:41:25;4.57;;;1.67;;
20982;SDS011;10650;51.528;6.748;2022-12-29T08:43:54;4.88;;;1.60;;
20982;SDS011;10650;51.528;6.748;2022-12-29T08:46:22;4.65;;;1.38;;
20982;SDS011;10650;51.528;6.748;2022-12-29T08:48:50;4.43;;;1.58;;
20982;SDS011;10650;51.528;6.748;2022-12-29T08:51:18;6.60;;;1.90;;
20982;SDS011;10650;51.528;6.748;2022-12-29T08:53:50;7.97;;;2.08;;
20982;SDS011;10650;51.528;6.748;2022-12-29T08:56:17;7.13;;;1.90;;
20982;SDS011;10650;51.528;6.748;2022-12-29T08:58:45;7.60;;;1.90;;
20982;SDS011;10650;51.528;6.748;2022-12-29T09:01:14;6.63;;;1.95;;
20982;SDS011;10650;51.528;6.748;2022-12-29T09:03:42;5.97;;;1.70;;
20982;SDS011;10650;51.528;6.748;2022-12-29T09:06:30;5.60;;;1.60;;
20982;SDS011;10650;51.528;6.748;2022-12-29T09:09:05;5.65;;;1.80;;
20982;SDS011;10650;51.528;6.748;2022-12-29T09:11:33;5.07;;;1.60;;
20982;SDS011;10650;51.528;6.748;2022-12-29T09:14:01;5.95;;;1.52;;
20982;SDS011;10650;51.528;6.748;2022-12-29T09:16:30;7.05;;;1.83;;
20982;SDS011;10650;51.528;6.748;2022-12-29T09:18:59;6.53;;;1.95;;
20982;SDS011;10650;51.528;6.748;2022-12-29T09:21:26;3.92;;;1.73;;
20982;SDS011;10650;51.528;6.748;2022-12-29T09:23:54;6.43;;;1.83;;
20982;SDS011;10650;51.528;6.748;2022-12-29T09:26:22;4.15;;;1.45;;
20982;SDS011;10650;51.528;6.748;2022-12-29T09:28:50;7.38;;;2.10;;
20982;SDS011;10650;51.528;6.748;2022-12-29T09:31:18;3.50;;;1.48;;
20982;SDS011;10650;51.528;6.748;2022-12-29T09:33:47;6.85;;;1.70;;
20982;SDS011;10650;51.528;6.748;2022-12-29T09:36:15;6.18;;;1.80;;
20982;SDS011;10650;51.528;6.748;2022-12-29T09:38:42;7.43;;;1.77;;
20982;SDS011;10650;51.528;6.748;2022-12-29T09:41:12;6.03;;;1.80;;
20982;SDS011;10650;51.528;6.748;2022-12-29T09:43:49;6.07;;;1.70;;
20982;SDS011;10650;51.528;6.748;2022-12-29T09:46:28;4.63;;;1.65;;
20982;SDS011;10650;51.528;6.748;2022-12-29T09:49:05;7.30;;;2.00;;
20982;SDS011;10650;51.528;6.748;2022-12-29T09:51:39;5.43;;;1.60;;
20982;SDS011;10650;51.528;6.748;2022-12-29T09:54:24;7.80;;;1.75;;
20982;SDS011;10650;51.528;6.748;2022-12-29T09:57:02;5.80;;;1.60;;
20982;SDS011;10650;51.528;6.748;2022-12-29T09:59:34;6.05;;;2.00;;
20982;SDS011;10650;51.528;6.748;2022-12-29T10:02:12;8.00;;;1.85;;
20982;SDS011;10650;51.528;6.748;2022-12-29T10:04:51;7.95;;;2.10;;
20982;SDS011;10650;51.528;6.748;2022-12-29T10:07:22;6.18;;;1.80;;
20982;SDS011;10650;51.528;6.748;2022-12-29T10:10:00;7.00;;;2.40;;
20982;SDS011;10650;51.528;6.748;2022-12-29T10:12:41;7.03;;;1.88;;
20982;SDS011;10650;51.528;6.748;2022-12-29T10:15:26;3.35;;;1.40;;
20982;SDS011;10650;51.528;6.748;2022-12-29T10:18:08;8.32;;;1.83;;
20982;SDS011;10650;51.528;6.748;2022-12-29T10:20:58;5.82;;;2.10;;
20982;SDS011;10650;51.528;6.748;2022-12-29T10:23:33;7.63;;;1.80;;
20982;SDS011;10650;51.528;6.748;2022-12-29T10:26:07;7.18;;;2.03;;
20982;SDS011;10650;51.528;6.748;2022-12-29T10:28:42;6.07;;;1.90;;
20982;SDS011;10650;51.528;6.748;2022-12-29T10:31:13;6.35;;;2.00;;
20982;SDS011;10650;51.528;6.748;2022-12-29T10:33:48;8.50;;;1.90;;
20982;SDS011;10650;51.528;6.748;2022-12-29T10:36:20;6.22;;;1.88;;
20982;SDS011;10650;51.528;6.748;2022-12-29T10:38:59;6.22;;;1.70;;
20982;SDS011;10650;51.528;6.748;2022-12-29T10:41:36;7.25;;;1.80;;
20982;SDS011;10650;51.528;6.748;2022-12-29T10:44:07;6.85;;;2.03;;
20982;SDS011;10650;51.528;6.748;2022-12-29T10:46:39;7.30;;;1.85;;
20982;SDS011;10650;51.528;6.748;2022-12-29T10:49:09;7.63;;;1.85;;
20982;SDS011;10650;51.528;6.748;2022-12-29T10:51:48;7.30;;;1.77;;
20982;SDS011;10650;51.528;6.748;2022-12-29T10:54:19;6.82;;;2.05;;
20982;SDS011;10650;51.528;6.748;2022-12-29T10:56:52;8.27;;;2.35;;
20982;SDS011;10650;51.528;6.748;2022-12-29T10:59:24;7.85;;;1.77;;
20982;SDS011;10650;51.528;6.748;2022-12-29T11:01:58;8.20;;;2.63;;
20982;SDS011;10650;51.528;6.748;2022-12-29T11:04:35;7.93;;;1.60;;
20982;SDS011;10650;51.528;6.748;2022-12-29T11:07:13;6.97;;;2.00;;
20982;SDS011;10650;51.528;6.748;2022-12-29T11:09:50;9.98;;;2.33;;
20982;SDS011;10650;51.528;6.748;2022-12-29T11:12:19;5.85;;;2.03;;
20982;SDS011;10650;51.528;6.748;2022-12-29T11:15:00;6.13;;;1.75;;
20982;SDS011;10650;51.528;6.748;2022-12-29T11:17:30;8.15;;;1.88;;
20982;SDS011;10650;51.528;6.748;2022-12-29T11:20:30;7.85;;;1.80;;
20982;SDS011;10650;51.528;6.748;2022-12-29T11:23:02;6.57;;;1.90;;
20982;SDS011;10650;51.528;6.748;2022-12-29T11:25:32;5.97;;;1.70;;
20982;SDS011;10650;51.528;6.748;2022-12-29T11:28:01;9.73;;;2.10;;
20982;SDS011;10650;51.528;6.748;2022-12-29T11:30:31;9.35;;;2.40;;
20982;SDS011;10650;51.528;6.748;2022-12-29T11:32:59;6.07;;;1.60;;
20982;SDS011;10650;51.528;6.748;2022-12-29T11:35:32;8.30;;;1.80;;
20982;SDS011;10650;51.528;6.748;2022-12-29T11:38:04;8.30;;;2.05;;
20982;SDS011;10650;51.528;6.748;2022-12-29T11:40:32;7.25;;;1.77;;
20982;SDS011;10650;51.528;6.748;2022-12-29T11:43:06;6.63;;;2.53;;
20982;SDS011;10650;51.528;6.748;2022-12-29T11:45:39;5.88;;;1.80;;
20982;SDS011;10650;51.528;6.748;2022-12-29T11:48:15;7.95;;;1.90;;
20982;SDS011;10650;51.528;6.748;2022-12-29T11:50:48;8.50;;;2.10;;
20982;SDS011;10650;51.528;6.748;2022-12-29T11:53:22;7.78;;;1.92;;
20982;SDS011;10650;51.528;6.748;2022-12-29T11:55:56;9.45;;;2.38;;
20982;SDS011;10650;51.528;6.748;2022-12-29T11:58:30;7.78;;;2.00;;
20982;SDS011;10650;51.528;6.748;2022-12-29T12:00:59;10.18;;;1.98;;
20982;SDS011;10650;51.528;6.748;2022-12-29T12:03:29;9.50;;;2.08;;
20982;SDS011;10650;51.528;6.748;2022-12-29T12:06:00;5.82;;;1.90;;
20982;SDS011;10650;51.528;6.748;2022-12-29T12:08:33;9.07;;;2.00;;
20982;SDS011;10650;51.528;6.748;2022-12-29T12:11:06;10.63;;;2.20;;
20982;SDS011;10650;51.528;6.748;2022-12-29T12:13:39;6.45;;;1.83;;
20982;SDS011;10650;51.528;6.748;2022-12-29T12:16:15;6.60;;;2.00;;
20982;SDS011;10650;51.528;6.748;2022-12-29T12:18:49;8.90;;;2.03;;
20982;SDS011;10650;51.528;6.748;2022-12-29T12:21:21;8.25;;;2.10;;
20982;SDS011;10650;51.528;6.748;2022-12-29T12:23:59;7.47;;;2.17;;
20982;SDS011;10650;51.528;6.748;2022-12-29T12:26:42;7.60;;;2.28;;
20982;SDS011;10650;51.528;6.748;2022-12-29T12:29:19;9.18;;;2.17;;
20982;SDS011;10650;51.528;6.748;2022-12-29T12:31:51;9.10;;;2.00;;
20982;SDS011;10650;51.528;6.748;2022-12-29T12:34:26;7.13;;;1.92;;
20982;SDS011;10650;51.528;6.748;2022-12-29T12:37:06;8.38;;;2.22;;
20982;SDS011;10650;51.528;6.748;2022-12-29T12:40:01;13.60;;;5.40;;
20982;SDS011;10650;51.528;6.748;2022-12-29T12:42:45;18.70;;;7.30;;
20982;SDS011;10650;51.528;6.748;2022-12-29T12:45:28;10.57;;;4.68;;
20982;SDS011;10650;51.528;6.748;2022-12-29T12:48:07;9.77;;;3.15;;
20982;SDS011;10650;51.528;6.748;2022-12-29T12:50:49;7.50;;;1.85;;
20982;SDS011;10650;51.528;6.748;2022-12-29T12:53:29;9.00;;;2.60;;
20982;SDS011;10650;51.528;6.748;2022-12-29T12:56:10;9.15;;;2.60;;
20982;SDS011;10650;51.528;6.748;2022-12-29T12:58:54;8.40;;;1.92;;
20982;SDS011;10650;51.528;6.748;2022-12-29T13:01:37;8.13;;;2.10;;
20982;SDS011;10650;51.528;6.748;2022-12-29T13:04:19;6.85;;;2.05;;
20982;SDS011;10650;51.528;6.748;2022-12-29T13:07:07;9.05;;;2.00;;
20982;SDS011;10650;51.528;6.748;2022-12-29T13:09:48;8.52;;;2.22;;
20982;SDS011;10650;51.528;6.748;2022-12-29T13:12:33;8.23;;;3.05;;
20982;SDS011;10650;51.528;6.748;2022-12-29T13:15:13;11.43;;;4.43;;
20982;SDS011;10650;51.528;6.748;2022-12-29T13:17:49;10.65;;;2.45;;
20982;SDS011;10650;51.528;6.748;2022-12-29T13:20:27;8.65;;;2.42;;
20982;SDS011;10650;51.528;6.748;2022-12-29T13:23:01;10.38;;;2.67;;
20982;SDS011;10650;51.528;6.748;2022-12-29T13:25:37;7.22;;;2.05;;
20982;SDS011;10650;51.528;6.748;2022-12-29T13:28:12;6.13;;;1.55;;
20982;SDS011;10650;51.528;6.748;2022-12-29T13:30:49;6.97;;;1.77;;
20982;SDS011;10650;51.528;6.748;2022-12-29T13:33:26;5.63;;;1.77;;
20982;SDS011;10650;51.528;6.748;2022-12-29T13:36:05;5.22;;;1.90;;
20982;SDS011;10650;51.528;6.748;2022-12-29T13:38:37;6.47;;;1.70;;
20982;SDS011;10650;51.528;6.748;2022-12-29T13:41:08;8.23;;;2.05;;
20982;SDS011;10650;51.528;6.748;2022-12-29T13:43:42;8.85;;;3.20;;
20982;SDS011;10650;51.528;6.748;2022-12-29T13:46:15;6.82;;;1.80;;
20982;SDS011;10650;51.528;6.748;2022-12-29T13:48:49;6.38;;;1.80;;
20982;SDS011;10650;51.528;6.748;2022-12-29T13:51:21;5.87;;;1.83;;
20982;SDS011;10650;51.528;6.748;2022-12-29T13:54:11;6.55;;;2.00;;
20982;SDS011;10650;51.528;6.748;2022-12-29T13:56:47;6.55;;;1.92;;
20982;SDS011;10650;51.528;6.748;2022-12-29T13:59:23;7.20;;;2.10;;
20982;SDS011;10650;51.528;6.748;2022-12-29T14:02:09;11.50;;;3.55;;
20982;SDS011;10650;51.528;6.748;2022-12-29T14:04:55;8.23;;;2.50;;
20982;SDS011;10650;51.528;6.748;2022-12-29T14:07:24;6.45;;;2.10;;
20982;SDS011;10650;51.528;6.748;2022-12-29T14:09:53;5.35;;;1.80;;
20982;SDS011;10650;51.528;6.748;2022-12-29T14:12:31;6.63;;;1.98;;
20982;SDS011;10650;51.528;6.748;2022-12-29T14:18:02;6.82;;;1.90;;
20982;SDS011;10650;51.528;6.748;2022-12-29T14:20:32;10.75;;;4.50;;
20982;SDS011;10650;51.528;6.748;2022-12-29T14:23:14;6.15;;;2.50;;
20982;SDS011;10650;51.528;6.748;2022-12-29T14:25:57;8.13;;;3.25;;
20982;SDS011;10650;51.528;6.748;2022-12-29T14:28:27;5.30;;;2.67;;
20982;SDS011;10650;51.528;6.748;2022-12-29T14:30:58;8.25;;;2.42;;
20982;SDS011;10650;51.528;6.748;2022-12-29T14:33:28;6.55;;;2.17;;
20982;SDS011;10650;51.528;6.748;2022-12-29T14:36:17;9.35;;;2.05;;
20982;SDS011;10650;51.528;6.748;2022-12-29T14:38:47;5.60;;;2.10;;
20982;SDS011;10650;51.528;6.748;2022-12-29T14:41:16;8.48;;;2.08;;
20982;SDS011;10650;51.528;6.748;2022-12-29T14:43:52;7.88;;;1.90;;
20982;SDS011;10650;51.528;6.748;2022-12-29T14:46:24;7.05;;;2.20;;
20982;SDS011;10650;51.528;6.748;2022-12-29T14:48:54;7.25;;;1.98;;
20982;SDS011;10650;51.528;6.748;2022-12-29T14:51:31;7.30;;;2.05;;
20982;SDS011;10650;51.528;6.748;2022-12-29T14:57:04;6.03;;;2.00;;
20982;SDS011;10650;51.528;6.748;2022-12-29T14:59:35;8.10;;;1.73;;
20982;SDS011;10650;51.528;6.748;2022-12-29T15:02:10;5.55;;;1.80;;
20982;SDS011;10650;51.528;6.748;2022-12-29T15:04:48;11.18;;;2.63;;
20982;SDS011;10650;51.528;6.748;2022-12-29T15:07:16;4.35;;;1.83;;
20982;SDS011;10650;51.528;6.748;2022-12-29T15:09:46;5.57;;;1.60;;
20982;SDS011;10650;51.528;6.748;2022-12-29T15:12:22;7.13;;;1.85;;
20982;SDS011;10650;51.528;6.748;2022-12-29T15:15:00;5.35;;;1.92;;
20982;SDS011;10650;51.528;6.748;2022-12-29T15:17:30;8.10;;;1.90;;
20982;SDS011;10650;51.528;6.748;2022-12-29T15:19:59;6.40;;;1.88;;
20982;SDS011;10650;51.528;6.748;2022-12-29T15:22:28;6.88;;;1.90;;
20982;SDS011;10650;51.528;6.748;2022-12-29T15:24:57;7.25;;;2.00;;
20982;SDS011;10650;51.528;6.748;2022-12-29T15:27:25;7.00;;;1.90;;
20982;SDS011;10650;51.528;6.748;2022-12-29T15:29:57;9.95;;;2.00;;
20982;SDS011;10650;51.528;6.748;2022-12-29T15:32:38;7.05;;;2.20;;